createdAt,value
2023-01-04T00:00:12.219Z,7.80
2023-01-04T00:02:39.828Z,7.53
2023-01-04T00:05:07.898Z,7.30
2023-01-04T00:07:35.358Z,7.75
2023-01-04T00:10:02.858Z,7.22
2023-01-04T00:12:30.355Z,6.90
2023-01-04T00:14:57.873Z,6.70
2023-01-04T00:17:26.679Z,6.25
2023-01-04T00:19:54.171Z,6.03
2023-01-04T00:22:21.670Z,6.13
2023-01-04T00:24:49.180Z,6.38
2023-01-04T00:27:16.665Z,7.18
2023-01-04T00:29:44.160Z,6.45
2023-01-04T00:32:11.675Z,6.03
2023-01-04T00:34:40.471Z,6.93
2023-01-04T00:37:08.367Z,5.60
2023-01-04T00:39:35.854Z,6.70
2023-01-04T00:42:06.116Z,6.32
2023-01-04T00:44:34.952Z,5.40
2023-01-04T00:47:04.438Z,6.20
2023-01-04T00:49:33.225Z,5.95
2023-01-04T00:52:02.143Z,5.65
2023-01-04T00:54:29.736Z,6.35
2023-01-04T00:56:57.287Z,5.45
2023-01-04T00:59:25.064Z,6.00
2023-01-04T01:01:52.824Z,5.70
2023-01-04T01:04:23.566Z,4.82
2023-01-04T01:06:52.016Z,5.30
2023-01-04T01:09:22.761Z,4.55
2023-01-04T01:11:50.624Z,4.20
2023-01-04T01:14:20.053Z,4.47
2023-01-04T01:16:57.684Z,4.50
2023-01-04T01:19:27.349Z,4.28
2023-01-04T01:21:56.917Z,3.95
2023-01-04T01:24:25.969Z,4.45
2023-01-04T01:26:53.625Z,6.28
2023-01-04T01:29:21.177Z,7.70
2023-01-04T01:31:48.741Z,4.95
2023-01-04T01:34:16.438Z,4.15
2023-01-04T01:36:43.994Z,4.47
2023-01-04T01:39:11.633Z,5.55
2023-01-04T01:41:40.668Z,4.70
2023-01-04T01:44:46.533Z,4.47
2023-01-04T01:47:18.223Z,4.60
2023-01-04T01:49:47.792Z,4.82
2023-01-04T01:52:19.619Z,5.57
2023-01-04T01:54:49.864Z,5.67
2023-01-04T01:57:22.470Z,5.80
2023-01-04T01:59:53.710Z,4.55
2023-01-04T02:02:22.122Z,4.57
2023-01-04T02:04:52.150Z,4.35
2023-01-04T02:07:23.069Z,4.57
2023-01-04T02:09:51.959Z,4.30
2023-01-04T02:12:21.237Z,5.07
2023-01-04T02:14:51.805Z,4.20
2023-01-04T02:17:37.522Z,4.97
2023-01-04T02:20:23.859Z,4.30
2023-01-04T02:23:37.300Z,4.78
2023-01-04T02:26:36.823Z,4.38
2023-01-04T02:29:38.147Z,4.47
2023-01-04T02:32:14.091Z,4.22
2023-01-04T02:34:58.333Z,4.20
2023-01-04T02:37:36.841Z,3.90
2023-01-04T02:40:15.073Z,4.50
2023-01-04T02:43:13.978Z,4.00
2023-01-04T02:45:49.636Z,3.63
2023-01-04T02:48:36.781Z,3.78
2023-01-04T02:51:04.602Z,4.00
2023-01-04T02:53:36.492Z,4.15
2023-01-04T02:56:16.781Z,3.63
2023-01-04T02:59:07.514Z,3.83
2023-01-04T03:02:01.466Z,3.50
2023-01-04T03:05:04.775Z,4.00
2023-01-04T03:07:41.027Z,4.03
2023-01-04T03:10:13.868Z,4.40
2023-01-04T03:15:17.082Z,3.85
2023-01-04T03:17:49.465Z,3.55
2023-01-04T03:20:21.929Z,4.30
2023-01-04T03:23:14.401Z,3.55
2023-01-04T03:26:03.235Z,3.92
2023-01-04T03:29:07.906Z,4.25
2023-01-04T03:31:59.411Z,4.38
2023-01-04T03:34:45.127Z,3.28
2023-01-04T03:37:19.555Z,3.53
2023-01-04T03:40:17.332Z,3.83
2023-01-04T03:43:06.271Z,3.20
2023-01-04T03:45:56.753Z,3.72
2023-01-04T03:48:31.737Z,3.55
2023-01-04T03:51:14.573Z,4.20
2023-01-04T03:53:52.906Z,3.85
2023-01-04T03:56:22.417Z,3.78
2023-01-04T03:58:50.688Z,3.70
2023-01-04T04:01:20.968Z,3.90
2023-01-04T04:04:06.542Z,5.28
2023-01-04T04:06:51.728Z,4.10
2023-01-04T04:09:20.964Z,4.35
2023-01-04T04:11:48.948Z,3.80
2023-01-04T04:14:16.767Z,4.85
2023-01-04T04:16:44.369Z,4.20
2023-01-04T04:19:12.027Z,4.80
2023-01-04T04:21:39.776Z,4.20
2023-01-04T04:24:08.012Z,4.65
2023-01-04T04:26:37.309Z,4.45
2023-01-04T04:29:04.978Z,4.75
2023-01-04T04:31:33.276Z,4.35
2023-01-04T04:34:01.160Z,4.47
2023-01-04T04:36:28.917Z,3.60
2023-01-04T04:38:56.489Z,4.05
2023-01-04T04:41:38.496Z,4.53
2023-01-04T04:44:08.923Z,4.20
2023-01-04T04:46:37.349Z,3.75
2023-01-04T04:49:05.510Z,3.90
2023-01-04T04:51:33.849Z,4.00
2023-01-04T04:54:01.997Z,3.50
2023-01-04T04:56:30.077Z,4.35
2023-01-04T04:58:57.794Z,3.80
2023-01-04T05:01:26.787Z,4.38
2023-01-04T05:03:58.629Z,3.58
2023-01-04T05:06:26.559Z,3.67
2023-01-04T05:08:54.059Z,3.60
2023-01-04T05:11:41.701Z,3.20
2023-01-04T05:14:08.851Z,4.00
2023-01-04T05:16:37.868Z,3.72
2023-01-04T05:19:05.703Z,3.60
2023-01-04T05:21:33.232Z,4.20
2023-01-04T05:24:00.719Z,3.22
2023-01-04T05:26:28.222Z,3.63
2023-01-04T05:28:55.773Z,3.40
2023-01-04T05:31:22.516Z,3.05
2023-01-04T05:33:51.416Z,3.40
2023-01-04T05:36:18.963Z,3.97
2023-01-04T05:38:46.540Z,3.25
2023-01-04T05:41:28.072Z,3.42
2023-01-04T05:43:55.866Z,3.03
2023-01-04T05:46:23.800Z,2.20
2023-01-04T05:48:52.772Z,2.75
2023-01-04T05:51:20.235Z,2.72
2023-01-04T05:53:47.812Z,2.60
2023-01-04T05:56:15.347Z,3.00
2023-01-04T05:58:42.822Z,2.80
2023-01-04T06:01:10.378Z,3.50
2023-01-04T06:03:37.996Z,2.60
2023-01-04T06:06:07.090Z,2.60
2023-01-04T06:08:34.557Z,2.78
2023-01-04T06:11:02.044Z,2.95
2023-01-04T06:13:29.578Z,2.13
2023-01-04T06:15:57.067Z,2.50
2023-01-04T06:18:24.573Z,2.60
2023-01-04T06:20:52.141Z,2.85
2023-01-04T06:23:20.959Z,2.72
2023-01-04T06:25:48.467Z,2.40
2023-01-04T06:28:15.935Z,2.38
2023-01-04T06:30:43.475Z,2.45
2023-01-04T06:33:10.990Z,2.60
2023-01-04T06:35:38.512Z,2.47
2023-01-04T06:38:06.006Z,2.60
2023-01-04T06:40:34.833Z,2.83
2023-01-04T06:43:02.917Z,2.20
2023-01-04T06:45:30.590Z,3.13
2023-01-04T06:47:58.050Z,2.67
2023-01-04T06:50:25.504Z,2.20
2023-01-04T06:52:52.973Z,2.67
2023-01-04T06:55:20.521Z,2.83
2023-01-04T06:57:49.337Z,2.90
2023-01-04T07:00:17.649Z,2.70
2023-01-04T07:03:13.706Z,2.92
2023-01-04T07:05:32.881Z,3.30
2023-01-04T07:08:07.759Z,2.55
2023-01-04T07:10:35.654Z,2.80
2023-01-04T07:13:04.575Z,3.03
2023-01-04T07:15:38.515Z,3.17
2023-01-04T07:18:08.295Z,3.60
2023-01-04T07:20:35.843Z,3.03
2023-01-04T07:23:03.340Z,3.10
2023-01-04T07:25:30.901Z,3.20
2023-01-04T07:27:58.396Z,3.08
2023-01-04T07:30:27.356Z,3.35
2023-01-04T07:32:56.347Z,3.40
2023-01-04T07:35:24.261Z,2.92
2023-01-04T07:37:57.828Z,3.28
2023-01-04T07:40:26.181Z,3.33
2023-01-04T07:42:58.203Z,4.85
2023-01-04T07:45:27.990Z,4.50
2023-01-04T07:47:55.641Z,3.78
2023-01-04T07:50:23.146Z,3.22
2023-01-04T07:52:50.655Z,3.38
2023-01-04T07:55:18.325Z,3.13
2023-01-04T07:57:45.831Z,2.35
2023-01-04T08:00:14.406Z,3.00
2023-01-04T08:02:43.340Z,3.08
2023-01-04T08:05:11.021Z,3.08
2023-01-04T08:07:38.580Z,3.10
2023-01-04T08:10:07.083Z,2.80
2023-01-04T08:12:34.581Z,2.90
2023-01-04T08:15:02.128Z,3.03
2023-01-04T08:17:29.608Z,6.45
2023-01-04T08:19:58.398Z,8.18
2023-01-04T08:22:25.883Z,6.30
2023-01-04T08:24:53.364Z,4.13
2023-01-04T08:27:20.928Z,4.13
2023-01-04T08:29:48.387Z,3.72
2023-01-04T08:32:15.879Z,3.45
2023-01-04T08:34:43.512Z,2.70
2023-01-04T08:37:12.395Z,2.92
2023-01-04T08:39:44.036Z,2.40
2023-01-04T08:42:22.375Z,2.42
2023-01-04T08:44:59.595Z,1.63
2023-01-04T08:47:27.835Z,1.05
2023-01-04T08:49:55.453Z,1.00
2023-01-04T08:52:24.520Z,1.25
2023-01-04T08:54:52.051Z,1.27
2023-01-04T08:57:19.765Z,1.30
2023-01-04T08:59:47.276Z,1.33
2023-01-04T09:02:22.931Z,1.00
2023-01-04T09:04:51.356Z,1.00
2023-01-04T09:07:19.478Z,1.45
2023-01-04T09:09:48.344Z,1.23
2023-01-04T09:12:15.819Z,1.25
2023-01-04T09:14:43.595Z,0.85
2023-01-04T09:17:11.070Z,1.45
2023-01-04T09:19:38.542Z,0.90
2023-01-04T09:22:06.171Z,0.75
2023-01-04T09:24:34.284Z,1.10
2023-01-04T09:27:04.648Z,0.75
2023-01-04T09:29:32.236Z,0.73
2023-01-04T09:31:59.892Z,0.80
2023-01-04T09:34:27.559Z,0.98
2023-01-04T09:36:55.086Z,0.80
2023-01-04T09:39:23.983Z,0.82
2023-01-04T09:41:57.084Z,0.70
2023-01-04T09:47:29.514Z,0.68
2023-01-04T09:50:00.666Z,0.60
2023-01-04T09:52:41.494Z,0.65
2023-01-04T09:55:37.316Z,0.50
2023-01-04T09:58:06.538Z,0.63
2023-01-04T10:00:43.621Z,0.57
2023-01-04T10:03:15.965Z,0.50
2023-01-04T10:05:44.001Z,0.88
2023-01-04T10:08:17.241Z,0.65
2023-01-04T10:10:51.699Z,0.45
2023-01-04T10:13:33.571Z,0.40
2023-01-04T10:16:17.656Z,0.38
2023-01-04T10:19:59.795Z,0.30
2023-01-04T10:21:55.172Z,0.28
2023-01-04T10:24:44.938Z,0.25
2023-01-04T10:27:19.757Z,0.50
2023-01-04T10:29:59.785Z,0.80
2023-01-04T10:32:36.776Z,0.40
2023-01-04T10:35:18.128Z,0.52
2023-01-04T10:37:49.435Z,0.50
2023-01-04T10:40:19.165Z,0.75
2023-01-04T10:42:57.378Z,0.90
2023-01-04T10:45:33.892Z,0.70
2023-01-04T10:48:08.790Z,0.70
2023-01-04T10:50:45.451Z,0.57
2023-01-04T10:53:17.864Z,0.60
2023-01-04T10:56:26.298Z,0.47
2023-01-04T10:58:47.033Z,0.32
2023-01-04T11:01:20.624Z,0.50
2023-01-04T11:03:54.610Z,0.25
2023-01-04T11:06:26.268Z,0.35
2023-01-04T11:08:59.508Z,0.47
2023-01-04T11:11:32.865Z,0.40
2023-01-04T11:14:00.511Z,0.50
2023-01-04T11:16:30.581Z,0.30
2023-01-04T11:19:00.099Z,0.50
2023-01-04T11:21:31.100Z,0.50
2023-01-04T11:24:21.943Z,0.60
2023-01-04T11:26:49.492Z,0.55
2023-01-04T11:29:30.801Z,0.50
2023-01-04T11:32:02.299Z,0.40
2023-01-04T11:34:48.151Z,0.40
2023-01-04T11:37:27.530Z,0.85
2023-01-04T11:40:22.854Z,0.30
2023-01-04T11:42:52.925Z,0.55
2023-01-04T11:45:24.066Z,0.50
2023-01-04T11:47:54.226Z,0.65
2023-01-04T11:50:47.750Z,0.40
2023-01-04T11:53:31.269Z,1.10
2023-01-04T11:56:17.585Z,1.10
2023-01-04T11:59:02.396Z,0.90
2023-01-04T12:01:30.321Z,0.70
2023-01-04T12:03:59.422Z,0.25
2023-01-04T12:06:36.215Z,0.60
2023-01-04T12:09:03.773Z,0.35
2023-01-04T12:11:35.331Z,0.80
2023-01-04T12:14:03.722Z,0.40
2023-01-04T12:16:45.637Z,1.08
2023-01-04T12:19:16.898Z,1.25
2023-01-04T12:21:49.249Z,0.20
2023-01-04T12:24:19.902Z,0.35
2023-01-04T12:26:47.699Z,0.30
2023-01-04T12:29:58.337Z,0.30
2023-01-04T12:32:46.644Z,0.30
2023-01-04T12:36:04.876Z,0.20
2023-01-04T12:39:00.446Z,0.30
2023-01-04T12:42:17.687Z,0.35
2023-01-04T12:45:10.711Z,0.38
2023-01-04T12:48:05.761Z,0.30
2023-01-04T12:50:38.354Z,0.60
2023-01-04T12:53:33.572Z,0.28
2023-01-04T12:56:02.501Z,0.20
2023-01-04T13:02:19.652Z,0.30
2023-01-04T13:04:47.331Z,0.40
2023-01-04T13:07:20.319Z,0.20
2023-01-04T13:09:53.762Z,0.20
2023-01-04T13:12:54.705Z,0.30
2023-01-04T13:15:30.417Z,0.35
2023-01-04T13:17:58.823Z,0.30
2023-01-04T13:20:28.973Z,0.28
2023-01-04T13:22:59.643Z,0.55
2023-01-04T13:25:27.699Z,0.32
2023-01-04T13:27:56.620Z,0.40
2023-01-04T13:30:37.703Z,0.30
2023-01-04T13:33:27.997Z,0.30
2023-01-04T13:36:03.806Z,0.20
2023-01-04T13:38:34.533Z,0.30
2023-01-04T13:41:02.269Z,0.20
2023-01-04T13:43:48.849Z,0.10
2023-01-04T13:46:20.969Z,0.30
2023-01-04T13:48:52.610Z,0.40
2023-01-04T13:51:29.063Z,0.30
2023-01-04T13:54:01.045Z,0.47
2023-01-04T13:56:31.631Z,0.40
2023-01-04T13:58:59.774Z,0.20
2023-01-04T14:01:31.024Z,0.28
2023-01-04T14:04:01.301Z,0.20
2023-01-04T14:06:32.248Z,0.38
2023-01-04T14:09:03.927Z,0.30
2023-01-04T14:11:52.409Z,0.60
2023-01-04T14:14:25.148Z,0.38
2023-01-04T14:19:43.120Z,0.50
2023-01-04T14:22:27.022Z,0.60
2023-01-04T14:25:11.767Z,0.30
2023-01-04T14:27:41.080Z,0.30
2023-01-04T14:30:24.952Z,0.20
2023-01-04T14:32:59.978Z,0.40
2023-01-04T14:35:29.309Z,0.30
2023-01-04T14:38:03.205Z,0.30
2023-01-04T14:40:32.228Z,0.30
2023-01-04T14:42:59.935Z,0.30
2023-01-04T14:45:27.483Z,0.30
2023-01-04T14:47:54.963Z,0.25
2023-01-04T14:50:23.810Z,0.60
2023-01-04T14:52:52.268Z,0.35
2023-01-04T14:55:20.353Z,0.15
2023-01-04T14:57:47.865Z,0.50
2023-01-04T15:00:19.538Z,0.63
2023-01-04T15:02:50.381Z,0.32
2023-01-04T15:05:19.941Z,0.20
2023-01-04T15:07:49.348Z,0.32
2023-01-04T15:10:22.562Z,0.15
2023-01-04T15:12:50.333Z,0.38
2023-01-04T15:15:18.067Z,0.22
2023-01-04T15:17:45.848Z,0.17
2023-01-04T15:20:14.005Z,0.32
2023-01-04T15:22:41.683Z,0.43
2023-01-04T15:25:11.739Z,0.63
2023-01-04T15:27:42.481Z,0.35
2023-01-04T15:30:11.459Z,0.22
2023-01-04T15:32:39.226Z,0.20
2023-01-04T15:35:07.597Z,0.20
2023-01-04T15:37:35.133Z,0.40
2023-01-04T15:40:03.965Z,0.45
2023-01-04T15:42:50.424Z,0.70
2023-01-04T15:45:17.944Z,0.50
2023-01-04T15:47:45.456Z,0.25
2023-01-04T15:50:12.990Z,0.65
2023-01-04T15:52:40.466Z,0.40
2023-01-04T15:55:08.644Z,0.38
2023-01-04T15:57:41.792Z,0.20
2023-01-04T16:00:12.570Z,0.17
2023-01-04T16:02:40.297Z,0.30
2023-01-04T16:05:09.163Z,0.30
2023-01-04T16:07:36.930Z,0.40
2023-01-04T16:10:04.786Z,0.15
2023-01-04T16:12:44.511Z,0.10
2023-01-04T16:15:16.807Z,0.40
2023-01-04T16:17:46.276Z,0.20
2023-01-04T16:20:15.978Z,0.20
2023-01-04T16:22:43.798Z,0.20
2023-01-04T16:25:12.649Z,0.10
2023-01-04T16:27:40.843Z,0.30
2023-01-04T16:30:12.145Z,0.40
2023-01-04T16:32:43.551Z,0.10
2023-01-04T16:35:12.197Z,0.30
2023-01-04T16:37:40.360Z,0.43
2023-01-04T16:40:09.760Z,0.20
2023-01-04T16:42:38.104Z,0.20
2023-01-04T16:45:07.129Z,0.20
2023-01-04T16:47:41.150Z,0.35
2023-01-04T16:50:11.085Z,0.45
2023-01-04T16:52:38.719Z,0.90
2023-01-04T16:55:07.632Z,0.70
2023-01-04T16:57:35.169Z,0.50
2023-01-04T17:00:03.107Z,0.57
2023-01-04T17:02:30.644Z,0.20
2023-01-04T17:04:59.620Z,0.50
2023-01-04T17:07:32.587Z,0.45
2023-01-04T17:10:00.973Z,0.32
2023-01-04T17:15:42.339Z,0.68
2023-01-04T17:18:03.986Z,0.20
2023-01-04T17:20:31.436Z,0.30
2023-01-04T17:23:00.516Z,0.77
2023-01-04T17:25:28.004Z,0.30
2023-01-04T17:27:55.471Z,0.20
2023-01-04T17:30:22.908Z,0.20
2023-01-04T17:32:50.411Z,0.13
2023-01-04T17:35:18.027Z,0.17
2023-01-04T17:37:45.505Z,0.15
2023-01-04T17:40:20.669Z,0.70
2023-01-04T17:42:50.283Z,0.30
2023-01-04T17:45:17.865Z,0.35
2023-01-04T17:47:45.368Z,0.28
2023-01-04T17:50:12.994Z,0.30
2023-01-04T17:52:40.543Z,0.32
2023-01-04T17:55:08.948Z,0.17
2023-01-04T17:57:37.790Z,0.30
2023-01-04T18:00:06.283Z,0.28
2023-01-04T18:02:34.349Z,0.28
2023-01-04T18:05:02.813Z,0.40
2023-01-04T18:07:30.444Z,0.10
2023-01-04T18:09:57.950Z,0.17
2023-01-04T18:12:25.423Z,0.45
2023-01-04T18:14:54.266Z,0.43
2023-01-04T18:17:21.815Z,0.30
2023-01-04T18:19:49.769Z,0.10
2023-01-04T18:22:17.348Z,0.10
2023-01-04T18:24:44.849Z,0.25
2023-01-04T18:27:23.115Z,0.20
2023-01-04T18:29:51.967Z,0.40
2023-01-04T18:32:21.645Z,0.45
2023-01-04T18:34:49.278Z,0.28
2023-01-04T18:37:19.099Z,0.30
2023-01-04T18:39:57.831Z,0.30
2023-01-04T18:42:25.421Z,0.30
2023-01-04T18:44:52.901Z,0.32
2023-01-04T18:47:22.782Z,0.40
2023-01-04T18:49:51.033Z,0.22
2023-01-04T18:52:19.880Z,0.45
2023-01-04T18:54:48.571Z,0.50
2023-01-04T18:57:16.306Z,0.80
2023-01-04T18:59:43.780Z,0.55
2023-01-04T19:02:17.246Z,0.55
2023-01-04T19:04:46.533Z,0.50
2023-01-04T19:07:14.083Z,0.50
2023-01-04T19:09:42.709Z,0.30
2023-01-04T19:12:10.673Z,0.30
2023-01-04T19:14:38.169Z,0.30
2023-01-04T19:17:05.703Z,0.52
2023-01-04T19:19:34.388Z,0.30
2023-01-04T19:22:03.233Z,0.32
2023-01-04T19:24:30.786Z,0.50
2023-01-04T19:27:02.906Z,0.60
2023-01-04T19:29:31.316Z,0.52
2023-01-04T19:31:58.830Z,0.45
2023-01-04T19:34:26.345Z,1.10
2023-01-04T19:36:53.836Z,1.48
2023-01-04T19:39:22.662Z,0.90
2023-01-04T19:41:50.130Z,1.00
2023-01-04T19:44:17.613Z,0.55
2023-01-04T19:46:45.091Z,0.50
2023-01-04T19:49:15.536Z,0.60
2023-01-04T19:51:44.993Z,0.63
2023-01-04T19:54:18.538Z,0.70
2023-01-04T19:56:52.438Z,0.57
2023-01-04T19:59:19.945Z,0.43
2023-01-04T20:01:47.581Z,0.50
2023-01-04T20:04:15.209Z,0.43
2023-01-04T20:06:42.727Z,0.52
2023-01-04T20:09:10.224Z,0.80
2023-01-04T20:11:37.744Z,0.60
2023-01-04T20:14:06.820Z,0.95
2023-01-04T20:16:34.405Z,1.00
2023-01-04T20:19:01.949Z,0.40
2023-01-04T20:21:29.685Z,0.90
2023-01-04T20:23:58.441Z,0.57
2023-01-04T20:26:26.008Z,0.60
2023-01-04T20:28:53.605Z,0.55
2023-01-04T20:31:22.691Z,0.30
2023-01-04T20:33:50.306Z,0.68
2023-01-04T20:36:20.277Z,0.47
2023-01-04T20:38:49.199Z,0.40
2023-01-04T20:41:18.578Z,0.50
2023-01-04T20:43:47.049Z,0.57
2023-01-04T20:46:17.332Z,0.88
2023-01-04T20:48:46.481Z,0.60
2023-01-04T20:51:18.396Z,1.17
2023-01-04T20:53:46.654Z,0.55
2023-01-04T20:56:16.097Z,1.30
2023-01-04T20:58:43.981Z,1.10
2023-01-04T21:01:11.623Z,0.40
2023-01-04T21:03:40.028Z,0.20
2023-01-04T21:06:10.895Z,0.20
2023-01-04T21:08:39.530Z,0.30
2023-01-04T21:11:07.610Z,0.43
2023-01-04T21:13:35.253Z,0.32
2023-01-04T21:16:02.905Z,0.20
2023-01-04T21:18:36.828Z,0.30
2023-01-04T21:21:09.570Z,0.40
2023-01-04T21:26:07.633Z,0.30
2023-01-04T21:28:35.942Z,0.10
2023-01-04T21:31:04.266Z,0.40
2023-01-04T21:33:31.827Z,0.20
2023-01-04T21:35:59.359Z,0.20
2023-01-04T21:38:28.323Z,0.50
2023-01-04T21:40:55.947Z,0.50
2023-01-04T21:43:23.474Z,0.40
2023-01-04T21:45:50.984Z,0.20
2023-01-04T21:48:18.563Z,0.30
2023-01-04T21:50:46.154Z,0.20
2023-01-04T21:53:16.901Z,0.10
2023-01-04T21:55:45.844Z,0.20
2023-01-04T21:58:13.499Z,0.17
2023-01-04T22:00:41.068Z,0.20
2023-01-04T22:03:08.747Z,0.20
2023-01-04T22:05:36.411Z,0.30
2023-01-04T22:08:03.963Z,0.20
2023-01-04T22:10:31.510Z,1.08
2023-01-04T22:13:00.452Z,2.92
2023-01-04T22:15:28.058Z,1.83
2023-01-04T22:17:56.219Z,1.95
2023-01-04T22:20:23.763Z,0.60
2023-01-04T22:22:51.369Z,0.40
2023-01-04T22:25:18.942Z,0.22
2023-01-04T22:27:50.336Z,0.20
2023-01-04T22:30:19.465Z,0.30
2023-01-04T22:32:47.068Z,0.40
2023-01-04T22:35:14.730Z,0.10
2023-01-04T22:37:42.228Z,0.20
2023-01-04T22:40:10.682Z,0.20
2023-01-04T22:42:38.215Z,0.20
2023-01-04T22:45:12.994Z,0.30
2023-01-04T22:47:42.551Z,0.10
2023-01-04T22:50:10.837Z,0.10
2023-01-04T22:52:38.353Z,0.30
2023-01-04T22:55:07.127Z,0.10
2023-01-04T22:57:34.822Z,0.20
2023-01-04T23:00:02.406Z,0.28
2023-01-04T23:02:30.022Z,0.20
2023-01-04T23:04:59.079Z,0.20
2023-01-04T23:07:26.693Z,0.20
2023-01-04T23:09:54.265Z,0.40
2023-01-04T23:12:21.859Z,0.20
2023-01-04T23:14:49.368Z,0.68
2023-01-04T23:17:17.022Z,0.10
2023-01-04T23:19:44.544Z,0.20
2023-01-04T23:22:13.483Z,0.20
2023-01-04T23:24:41.044Z,0.20
2023-01-04T23:27:08.546Z,0.15
2023-01-04T23:29:36.063Z,0.15
2023-01-04T23:32:03.693Z,0.20
2023-01-04T23:34:31.246Z,0.40
2023-01-04T23:36:58.791Z,0.10
2023-01-04T23:39:27.670Z,0.20
2023-01-04T23:41:55.222Z,0.30
2023-01-04T23:44:25.021Z,0.13
2023-01-04T23:46:56.269Z,0.10
2023-01-04T23:49:25.662Z,0.10
2023-01-04T23:51:53.867Z,0.10
2023-01-04T23:54:22.153Z,0.10
2023-01-04T23:56:51.364Z,0.00
2023-01-04T23:59:19.504Z,0.10
